createdAt,value
2023-02-05T00:00:49.488Z,53.29
2023-02-05T00:03:38.509Z,53.09
2023-02-05T00:06:06.664Z,52.47
2023-02-05T00:08:35.086Z,52.45
2023-02-05T00:11:09.311Z,52.40
2023-02-05T00:13:40.680Z,52.53
2023-02-05T00:16:18.581Z,52.34
2023-02-05T00:18:46.374Z,52.66
2023-02-05T00:21:15.851Z,51.94
2023-02-05T00:23:43.866Z,51.25
2023-02-05T00:26:13.517Z,52.24
2023-02-05T00:28:42.269Z,52.19
2023-02-05T00:31:18.745Z,51.36
2023-02-05T00:33:47.612Z,51.83
2023-02-05T00:36:17.111Z,51.51
2023-02-05T00:38:46.821Z,51.84
2023-02-05T00:41:15.822Z,51.84
2023-02-05T00:43:44.082Z,52.03
2023-02-05T00:46:14.159Z,52.04
2023-02-05T00:48:42.791Z,51.55
2023-02-05T00:51:11.608Z,51.96
2023-02-05T00:53:40.635Z,51.82
2023-02-05T00:56:08.635Z,52.67
2023-02-05T00:58:36.738Z,52.97
2023-02-05T01:01:05.395Z,53.68
2023-02-05T01:03:33.642Z,54.75
2023-02-05T01:06:03.285Z,55.19
2023-02-05T01:08:30.863Z,56.38
2023-02-05T01:10:59.363Z,56.33
2023-02-05T01:13:27.141Z,56.37
2023-02-05T01:15:55.501Z,56.38
2023-02-05T01:18:23.098Z,56.71
2023-02-05T01:20:51.049Z,55.63
2023-02-05T01:23:18.564Z,56.04
2023-02-05T01:25:46.403Z,55.55
2023-02-05T01:28:15.715Z,56.21
2023-02-05T01:30:49.645Z,58.38
2023-02-05T01:33:18.737Z,59.37
2023-02-05T01:35:47.038Z,60.87
2023-02-05T01:38:15.651Z,61.47
2023-02-05T01:40:43.610Z,62.46
2023-02-05T01:43:17.465Z,63.31
2023-02-05T01:46:25.821Z,64.76
2023-02-05T01:48:57.335Z,65.54
2023-02-05T01:51:29.065Z,65.44
2023-02-05T01:53:57.403Z,66.23
2023-02-05T01:56:35.720Z,66.41
2023-02-05T01:59:27.865Z,66.62
2023-02-05T02:01:56.802Z,65.86
2023-02-05T02:04:42.062Z,65.68
2023-02-05T02:07:20.312Z,65.20
2023-02-05T02:09:49.395Z,64.91
2023-02-05T02:12:24.282Z,64.98
2023-02-05T02:14:57.177Z,63.76
2023-02-05T02:17:26.898Z,64.60
2023-02-05T02:20:02.756Z,63.97
2023-02-05T02:22:48.050Z,63.99
2023-02-05T02:26:24.264Z,64.15
2023-02-05T02:28:59.484Z,64.25
2023-02-05T02:31:50.472Z,64.04
2023-02-05T02:34:26.986Z,63.71
2023-02-05T02:37:03.887Z,63.94
2023-02-05T02:40:04.484Z,63.69
2023-02-05T02:42:43.345Z,62.92
2023-02-05T02:45:14.616Z,63.20
2023-02-05T02:47:53.709Z,62.92
2023-02-05T02:50:37.154Z,62.33
2023-02-05T02:53:13.692Z,62.61
2023-02-05T02:55:43.943Z,61.79
2023-02-05T02:58:23.133Z,62.11
2023-02-05T03:00:54.860Z,61.18
2023-02-05T03:03:26.722Z,60.81
2023-02-05T03:05:58.653Z,61.31
2023-02-05T03:08:45.435Z,61.85
2023-02-05T03:11:16.087Z,62.47
2023-02-05T03:13:45.714Z,61.88
2023-02-05T03:16:18.399Z,62.27
2023-02-05T03:18:47.929Z,62.15
2023-02-05T03:21:43.468Z,62.54
2023-02-05T03:24:11.659Z,63.58
2023-02-05T03:26:39.636Z,64.39
2023-02-05T03:29:21.258Z,64.74
2023-02-05T03:32:46.537Z,65.80
2023-02-05T03:35:54.333Z,66.50
2023-02-05T03:38:52.108Z,67.01
2023-02-05T03:41:55.842Z,67.44
2023-02-05T03:44:42.585Z,68.13
2023-02-05T03:47:49.422Z,67.91
2023-02-05T03:50:52.495Z,67.15
2023-02-05T03:53:36.342Z,66.54
2023-02-05T03:56:23.245Z,64.90
2023-02-05T03:58:55.204Z,63.95
2023-02-05T04:01:24.869Z,63.71
2023-02-05T04:03:52.683Z,63.42
2023-02-05T04:06:21.307Z,63.66
2023-02-05T04:08:51.586Z,63.50
2023-02-05T04:11:19.549Z,62.33
2023-02-05T04:13:48.184Z,62.02
2023-02-05T04:16:16.239Z,61.57
2023-02-05T04:18:44.075Z,61.23
2023-02-05T04:21:11.905Z,61.56
2023-02-05T04:23:42.198Z,61.61
2023-02-05T04:26:10.448Z,60.83
2023-02-05T04:28:45.108Z,60.57
2023-02-05T04:31:13.590Z,60.34
2023-02-05T04:33:43.081Z,61.01
2023-02-05T04:36:14.426Z,61.00
2023-02-05T04:38:42.015Z,60.54
2023-02-05T04:41:09.899Z,60.79
2023-02-05T04:43:37.602Z,60.81
2023-02-05T04:46:11.100Z,60.42
2023-02-05T04:48:39.279Z,59.59
2023-02-05T04:51:13.135Z,60.32
2023-02-05T04:53:41.505Z,60.51
2023-02-05T04:56:15.705Z,60.03
2023-02-05T04:58:44.509Z,60.48
2023-02-05T05:01:16.689Z,59.53
2023-02-05T05:03:44.967Z,60.43
2023-02-05T05:06:14.227Z,60.59
2023-02-05T05:08:42.409Z,60.88
2023-02-05T05:11:18.108Z,60.54
2023-02-05T05:13:46.412Z,61.38
2023-02-05T05:16:14.437Z,60.98
2023-02-05T05:18:42.389Z,60.34
2023-02-05T05:21:10.711Z,59.63
2023-02-05T05:23:38.588Z,59.90
2023-02-05T05:26:12.225Z,60.14
2023-02-05T05:28:40.071Z,59.38
2023-02-05T05:31:16.927Z,59.52
2023-02-05T05:33:44.459Z,59.53
2023-02-05T05:36:12.901Z,59.33
2023-02-05T05:38:40.705Z,59.03
2023-02-05T05:41:36.654Z,58.96
2023-02-05T05:44:04.456Z,58.44
2023-02-05T05:46:32.770Z,58.33
2023-02-05T05:49:02.692Z,59.57
2023-02-05T05:51:32.775Z,59.64
2023-02-05T05:54:00.868Z,59.53
2023-02-05T05:56:29.036Z,59.06
2023-02-05T05:58:56.566Z,58.89
2023-02-05T06:01:24.432Z,59.17
2023-02-05T06:03:51.962Z,58.81
2023-02-05T06:06:19.965Z,58.67
2023-02-05T06:08:47.557Z,58.42
2023-02-05T06:11:15.799Z,59.55
2023-02-05T06:13:43.646Z,59.26
2023-02-05T06:16:11.893Z,58.60
2023-02-05T06:18:39.541Z,58.57
2023-02-05T06:21:07.476Z,58.70
2023-02-05T06:23:35.210Z,58.48
2023-02-05T06:26:03.146Z,58.86
2023-02-05T06:28:30.595Z,59.45
2023-02-05T06:30:58.536Z,58.52
2023-02-05T06:33:26.102Z,58.52
2023-02-05T06:35:53.935Z,58.61
2023-02-05T06:38:21.493Z,57.90
2023-02-05T06:40:49.467Z,57.03
2023-02-05T06:43:16.912Z,57.88
2023-02-05T06:45:44.693Z,57.18
2023-02-05T06:48:12.346Z,57.00
2023-02-05T06:50:40.312Z,57.04
2023-02-05T06:53:07.752Z,57.11
2023-02-05T06:55:37.251Z,56.68
2023-02-05T06:58:05.090Z,56.56
2023-02-05T07:00:33.052Z,56.46
2023-02-05T07:03:00.615Z,57.28
2023-02-05T07:05:28.406Z,56.44
2023-02-05T07:07:55.925Z,57.28
2023-02-05T07:10:23.684Z,57.28
2023-02-05T07:12:51.186Z,57.22
2023-02-05T07:15:19.301Z,57.53
2023-02-05T07:17:46.874Z,57.02
2023-02-05T07:20:16.734Z,56.79
2023-02-05T07:22:44.083Z,56.59
2023-02-05T07:25:11.830Z,56.52
2023-02-05T07:27:39.294Z,57.41
2023-02-05T07:30:07.947Z,57.25
2023-02-05T07:32:36.093Z,57.21
2023-02-05T07:35:04.136Z,56.84
2023-02-05T07:37:31.601Z,57.00
2023-02-05T07:39:59.328Z,56.83
2023-02-05T07:42:26.867Z,56.99
2023-02-05T07:44:58.961Z,57.07
2023-02-05T07:47:26.964Z,56.46
2023-02-05T07:49:55.133Z,55.91
2023-02-05T07:52:22.772Z,55.89
2023-02-05T07:54:50.823Z,57.03
2023-02-05T07:57:18.381Z,56.65
2023-02-05T07:59:46.187Z,56.17
2023-02-05T08:02:13.771Z,56.80
2023-02-05T08:04:42.180Z,56.82
2023-02-05T08:07:13.155Z,56.72
2023-02-05T08:09:41.115Z,56.66
2023-02-05T08:12:08.929Z,57.07
2023-02-05T08:14:36.989Z,57.17
2023-02-05T08:17:06.265Z,56.37
2023-02-05T08:19:34.196Z,56.81
2023-02-05T08:22:01.642Z,56.79
2023-02-05T08:24:31.349Z,57.09
2023-02-05T08:26:59.049Z,57.39
2023-02-05T08:29:26.882Z,57.65
2023-02-05T08:31:54.357Z,58.20
2023-02-05T08:34:22.241Z,57.65
2023-02-05T08:36:49.695Z,57.84
2023-02-05T08:39:17.525Z,58.02
2023-02-05T08:41:44.945Z,58.32
2023-02-05T08:44:13.121Z,58.14
2023-02-05T08:46:49.763Z,59.04
2023-02-05T08:49:19.101Z,58.73
2023-02-05T08:51:47.389Z,60.18
2023-02-05T08:54:15.740Z,59.40
2023-02-05T08:56:45.383Z,59.70
2023-02-05T08:59:13.482Z,59.81
2023-02-05T09:01:43.958Z,60.15
2023-02-05T09:04:18.189Z,59.98
2023-02-05T09:06:45.854Z,60.46
2023-02-05T09:09:14.873Z,60.07
2023-02-05T09:11:43.000Z,58.98
2023-02-05T09:14:10.968Z,60.09
2023-02-05T09:16:40.086Z,59.25
2023-02-05T09:19:08.434Z,58.76
2023-02-05T09:21:36.121Z,59.42
2023-02-05T09:24:04.407Z,59.35
2023-02-05T09:26:32.016Z,59.57
2023-02-05T09:29:00.828Z,59.72
2023-02-05T09:31:28.583Z,59.80
2023-02-05T09:33:57.382Z,58.50
2023-02-05T09:36:25.272Z,58.01
2023-02-05T09:39:11.840Z,57.90
2023-02-05T09:42:20.455Z,58.38
2023-02-05T09:45:52.070Z,57.69
2023-02-05T09:48:54.977Z,59.14
2023-02-05T09:51:39.019Z,57.87
2023-02-05T09:54:34.185Z,56.77
2023-02-05T09:57:15.698Z,56.51
2023-02-05T09:59:47.203Z,57.13
2023-02-05T10:02:40.378Z,56.51
2023-02-05T10:05:14.911Z,56.24
2023-02-05T10:08:32.114Z,57.20
2023-02-05T10:11:02.162Z,57.22
2023-02-05T10:13:42.424Z,56.89
2023-02-05T10:16:48.818Z,56.94
2023-02-05T10:19:48.535Z,57.03
2023-02-05T10:22:20.506Z,55.93
2023-02-05T10:25:33.950Z,55.04
2023-02-05T10:28:38.053Z,56.37
2023-02-05T10:31:25.830Z,56.71
2023-02-05T10:34:07.717Z,56.71
2023-02-05T10:36:38.317Z,55.69
2023-02-05T10:39:16.254Z,55.91
2023-02-05T10:41:56.549Z,54.33
2023-02-05T10:44:40.605Z,53.95
2023-02-05T10:48:23.156Z,53.59
2023-02-05T10:51:29.196Z,55.25
2023-02-05T10:54:01.803Z,54.95
2023-02-05T10:56:29.461Z,54.90
2023-02-05T10:59:12.926Z,54.98
2023-02-05T11:01:57.127Z,51.69
2023-02-05T11:05:02.128Z,51.96
2023-02-05T11:07:37.651Z,53.16
2023-02-05T11:10:31.146Z,52.90
2023-02-05T11:13:21.537Z,51.96
2023-02-05T11:16:00.375Z,52.42
2023-02-05T11:18:47.250Z,53.82
2023-02-05T11:21:18.506Z,54.07
2023-02-05T11:23:57.528Z,51.59
2023-02-05T11:26:30.094Z,53.03
2023-02-05T11:28:58.539Z,52.45
2023-02-05T11:31:32.227Z,51.64
2023-02-05T11:34:08.885Z,52.04
2023-02-05T11:36:46.925Z,51.44
2023-02-05T11:39:41.572Z,51.66
2023-02-05T11:42:21.599Z,52.40
2023-02-05T11:45:00.482Z,53.35
2023-02-05T11:47:35.470Z,54.40
2023-02-05T11:50:05.951Z,53.81
2023-02-05T11:52:37.624Z,53.31
2023-02-05T11:55:06.551Z,54.11
2023-02-05T11:57:39.068Z,54.18
2023-02-05T12:00:09.953Z,55.69
2023-02-05T12:02:42.899Z,54.36
2023-02-05T12:05:13.527Z,53.86
2023-02-05T12:08:02.710Z,54.38
2023-02-05T12:11:09.630Z,52.94
2023-02-05T12:14:18.639Z,51.97
2023-02-05T12:16:51.963Z,51.91
2023-02-05T12:19:58.568Z,51.50
2023-02-05T12:22:58.386Z,50.45
2023-02-05T12:25:51.820Z,47.82
2023-02-05T12:29:18.229Z,47.67
2023-02-05T12:32:08.617Z,48.59
2023-02-05T12:35:16.180Z,49.24
2023-02-05T12:38:21.101Z,47.76
2023-02-05T12:41:30.912Z,47.71
2023-02-05T12:44:43.115Z,48.86
2023-02-05T12:47:45.661Z,49.33
2023-02-05T12:50:47.287Z,49.80
2023-02-05T12:53:39.065Z,53.66
2023-02-05T12:56:24.840Z,50.13
2023-02-05T12:59:14.957Z,49.30
2023-02-05T13:01:49.911Z,49.79
2023-02-05T13:04:28.211Z,48.97
2023-02-05T13:07:44.631Z,49.20
2023-02-05T13:10:31.405Z,49.27
2023-02-05T13:13:05.520Z,49.92
2023-02-05T13:15:46.612Z,50.26
2023-02-05T13:18:39.568Z,49.40
2023-02-05T13:21:34.100Z,49.07
2023-02-05T13:24:57.097Z,48.35
2023-02-05T13:27:51.969Z,47.25
2023-02-05T13:30:36.385Z,48.25
2023-02-05T13:33:07.376Z,48.51
2023-02-05T13:36:00.918Z,49.03
2023-02-05T13:38:55.732Z,49.36
2023-02-05T13:42:10.663Z,48.62
2023-02-05T13:45:25.713Z,48.42
2023-02-05T13:48:26.582Z,49.91
2023-02-05T13:51:46.528Z,50.59
2023-02-05T13:54:38.980Z,49.69
2023-02-05T13:58:00.428Z,50.04
2023-02-05T14:00:29.191Z,49.57
2023-02-05T14:02:59.013Z,49.77
2023-02-05T14:05:41.286Z,50.50
2023-02-05T14:08:27.403Z,51.32
2023-02-05T14:11:03.068Z,51.48
2023-02-05T14:13:34.422Z,50.90
2023-02-05T14:16:33.866Z,51.33
2023-02-05T14:19:01.260Z,50.69
2023-02-05T14:21:31.851Z,49.33
2023-02-05T14:24:02.953Z,52.92
2023-02-05T14:27:00.456Z,49.23
2023-02-05T14:29:49.848Z,50.23
2023-02-05T14:32:27.186Z,49.66
2023-02-05T14:35:28.756Z,50.84
2023-02-05T14:38:16.215Z,49.26
2023-02-05T14:40:43.799Z,49.63
2023-02-05T14:43:30.947Z,50.20
2023-02-05T14:46:27.301Z,50.15
2023-02-05T14:48:58.584Z,51.76
2023-02-05T14:52:00.295Z,52.66
2023-02-05T14:54:44.106Z,53.19
2023-02-05T14:57:57.481Z,53.94
2023-02-05T15:00:36.318Z,54.01
2023-02-05T15:03:23.106Z,53.62
2023-02-05T15:06:11.808Z,53.59
2023-02-05T15:08:52.541Z,52.27
2023-02-05T15:11:57.604Z,51.02
2023-02-05T15:14:33.284Z,50.93
2023-02-05T15:17:10.356Z,51.20
2023-02-05T15:20:18.314Z,51.19
2023-02-05T15:23:26.292Z,52.20
2023-02-05T15:25:58.811Z,52.02
2023-02-05T15:28:32.326Z,52.07
2023-02-05T15:31:22.370Z,52.79
2023-02-05T15:34:13.622Z,52.20
2023-02-05T15:36:53.415Z,52.58
2023-02-05T15:39:47.728Z,52.72
2023-02-05T15:42:22.477Z,53.30
2023-02-05T15:44:50.337Z,54.28
2023-02-05T15:47:26.952Z,53.82
2023-02-05T15:50:00.893Z,54.40
2023-02-05T15:52:32.341Z,55.09
2023-02-05T15:55:10.586Z,56.58
2023-02-05T15:57:38.737Z,57.70
2023-02-05T16:00:10.376Z,57.46
2023-02-05T16:02:40.102Z,57.98
2023-02-05T16:05:19.782Z,57.88
2023-02-05T16:07:55.172Z,58.30
2023-02-05T16:10:30.837Z,58.83
2023-02-05T16:13:16.696Z,59.63
2023-02-05T16:16:08.962Z,59.98
2023-02-05T16:18:50.593Z,60.39
2023-02-05T16:21:40.961Z,60.21
2023-02-05T16:24:35.445Z,61.03
2023-02-05T16:27:20.406Z,61.23
2023-02-05T16:29:55.410Z,60.36
2023-02-05T16:32:33.657Z,61.22
2023-02-05T16:35:04.509Z,62.15
2023-02-05T16:37:33.168Z,62.45
2023-02-05T16:40:06.493Z,63.42
2023-02-05T16:42:44.343Z,63.35
2023-02-05T16:45:19.898Z,63.68
2023-02-05T16:48:29.536Z,64.43
2023-02-05T16:50:57.933Z,64.85
2023-02-05T16:53:36.846Z,66.22
2023-02-05T16:56:12.866Z,66.18
2023-02-05T16:59:14.507Z,67.03
2023-02-05T17:01:45.142Z,67.11
2023-02-05T17:04:35.497Z,66.57
2023-02-05T17:07:15.196Z,65.71
2023-02-05T17:09:43.404Z,66.05
2023-02-05T17:12:20.203Z,65.99
2023-02-05T17:15:04.572Z,66.11
2023-02-05T17:17:32.688Z,65.99
2023-02-05T17:20:26.483Z,66.05
2023-02-05T17:23:03.366Z,65.39
2023-02-05T17:25:55.827Z,65.60
2023-02-05T17:28:27.380Z,65.09
2023-02-05T17:31:00.345Z,64.64
2023-02-05T17:33:29.629Z,65.23
2023-02-05T17:35:57.551Z,65.12
2023-02-05T17:38:25.086Z,64.84
2023-02-05T17:41:16.020Z,64.80
2023-02-05T17:43:43.595Z,64.54
2023-02-05T17:46:14.510Z,64.00
2023-02-05T17:48:42.398Z,63.78
2023-02-05T17:51:21.706Z,64.13
2023-02-05T17:53:50.448Z,64.56
2023-02-05T17:56:19.592Z,64.30
2023-02-05T17:58:47.971Z,64.72
2023-02-05T18:01:16.125Z,64.93
2023-02-05T18:03:43.850Z,63.83
2023-02-05T18:06:18.230Z,64.35
2023-02-05T18:08:46.134Z,63.30
2023-02-05T18:11:13.911Z,63.19
2023-02-05T18:13:41.692Z,63.68
2023-02-05T18:16:12.145Z,63.08
2023-02-05T18:18:41.886Z,62.68
2023-02-05T18:21:09.795Z,63.14
2023-02-05T18:23:37.378Z,63.58
2023-02-05T18:26:06.697Z,63.47
2023-02-05T18:28:35.351Z,64.09
2023-02-05T18:31:09.711Z,64.57
2023-02-05T18:33:37.747Z,63.62
2023-02-05T18:36:11.354Z,63.90
2023-02-05T18:38:40.205Z,63.37
2023-02-05T18:41:11.884Z,63.48
2023-02-05T18:43:39.904Z,62.85
2023-02-05T18:46:11.187Z,63.47
2023-02-05T18:48:40.945Z,63.92
2023-02-05T18:51:12.511Z,63.50
2023-02-05T18:53:40.980Z,63.01
2023-02-05T18:56:31.081Z,63.40
2023-02-05T18:59:05.826Z,63.93
2023-02-05T19:01:39.681Z,63.55
2023-02-05T19:04:13.772Z,64.18
2023-02-05T19:06:44.089Z,64.24
2023-02-05T19:09:12.353Z,63.69
2023-02-05T19:11:41.545Z,63.25
2023-02-05T19:14:12.586Z,63.24
2023-02-05T19:16:42.010Z,62.26
2023-02-05T19:19:13.279Z,62.81
2023-02-05T19:21:43.379Z,62.89
2023-02-05T19:24:13.823Z,62.70
2023-02-05T19:26:44.226Z,63.72
2023-02-05T19:29:18.440Z,63.48
2023-02-05T19:31:47.436Z,64.18
2023-02-05T19:34:16.616Z,63.82
2023-02-05T19:36:44.510Z,64.14
2023-02-05T19:39:14.484Z,64.63
2023-02-05T19:41:45.677Z,64.56
2023-02-05T19:44:13.620Z,64.06
2023-02-05T19:46:47.734Z,63.89
2023-02-05T19:49:19.638Z,64.12
2023-02-05T19:51:51.396Z,64.53
2023-02-05T19:54:21.619Z,63.65
2023-02-05T19:56:50.744Z,66.09
2023-02-05T19:59:19.612Z,66.72
2023-02-05T20:01:49.904Z,65.58
2023-02-05T20:04:28.566Z,63.14
2023-02-05T20:06:58.943Z,62.10
2023-02-05T20:12:34.122Z,60.18
2023-02-05T20:15:01.957Z,60.31
2023-02-05T20:17:30.090Z,60.52
2023-02-05T20:20:10.293Z,60.76
2023-02-05T20:22:43.066Z,61.82
2023-02-05T20:25:14.018Z,62.90
2023-02-05T20:27:42.435Z,63.22
2023-02-05T20:30:32.501Z,63.44
2023-02-05T20:33:00.335Z,63.61
2023-02-05T20:35:28.222Z,64.48
2023-02-05T20:37:56.242Z,64.17
2023-02-05T20:40:24.191Z,63.98
2023-02-05T20:42:53.224Z,63.61
2023-02-05T20:45:21.100Z,63.23
2023-02-05T20:47:49.441Z,63.14
2023-02-05T20:50:17.457Z,62.95
2023-02-05T20:52:45.905Z,62.71
2023-02-05T20:55:14.065Z,62.53
2023-02-05T20:57:41.988Z,63.01
2023-02-05T21:00:10.902Z,63.19
2023-02-05T21:02:39.022Z,63.34
2023-02-05T21:05:07.046Z,63.47
2023-02-05T21:07:36.943Z,63.75
2023-02-05T21:10:06.265Z,63.52
2023-02-05T21:12:34.066Z,64.11
2023-02-05T21:15:01.578Z,64.42
2023-02-05T21:17:29.511Z,64.98
2023-02-05T21:19:57.368Z,65.28
2023-02-05T21:22:25.517Z,64.83
2023-02-05T21:24:53.632Z,64.68
2023-02-05T21:27:24.872Z,65.31
2023-02-05T21:29:52.613Z,64.66
2023-02-05T21:32:21.037Z,64.87
2023-02-05T21:34:49.125Z,65.17
2023-02-05T21:37:19.956Z,65.00
2023-02-05T21:39:50.875Z,65.46
2023-02-05T21:42:21.236Z,65.82
2023-02-05T21:44:51.021Z,66.36
2023-02-05T21:47:19.590Z,66.43
2023-02-05T21:49:49.764Z,67.31
2023-02-05T21:52:18.612Z,67.57
2023-02-05T21:54:50.757Z,67.07
2023-02-05T21:57:19.508Z,67.39
2023-02-05T21:59:49.620Z,67.41
2023-02-05T22:02:19.070Z,67.99
2023-02-05T22:04:51.808Z,68.71
2023-02-05T22:07:23.748Z,67.77
2023-02-05T22:09:53.314Z,68.01
2023-02-05T22:12:24.729Z,68.16
2023-02-05T22:15:01.629Z,68.51
2023-02-05T22:18:12.942Z,68.56
2023-02-05T22:23:57.155Z,68.32
2023-02-05T22:26:43.869Z,68.58
2023-02-05T22:29:24.123Z,68.71
2023-02-05T22:31:58.459Z,68.87
2023-02-05T22:34:29.772Z,69.51
2023-02-05T22:36:59.840Z,69.60
2023-02-05T22:39:29.482Z,69.99
2023-02-05T22:41:58.158Z,69.93
2023-02-05T22:44:37.101Z,70.16
2023-02-05T22:47:45.005Z,69.81
2023-02-05T22:50:13.828Z,69.62
2023-02-05T22:52:41.311Z,69.48
2023-02-05T22:55:09.249Z,69.71
2023-02-05T22:57:36.800Z,70.22
2023-02-05T23:00:05.350Z,70.42
2023-02-05T23:02:32.914Z,70.01
2023-02-05T23:05:00.802Z,70.36
2023-02-05T23:07:28.256Z,70.10
2023-02-05T23:09:56.730Z,70.11
2023-02-05T23:12:24.194Z,70.37
2023-02-05T23:14:52.178Z,70.27
2023-02-05T23:17:19.647Z,70.50
2023-02-05T23:19:52.484Z,70.58
2023-02-05T23:22:19.960Z,70.77
2023-02-05T23:24:47.856Z,70.89
2023-02-05T23:27:15.435Z,71.43
2023-02-05T23:29:43.852Z,71.09
2023-02-05T23:32:15.081Z,71.66
2023-02-05T23:34:43.028Z,71.51
2023-02-05T23:37:11.822Z,71.58
2023-02-05T23:39:39.856Z,72.05
2023-02-05T23:42:07.394Z,72.08
2023-02-05T23:44:35.210Z,72.55
2023-02-05T23:47:02.708Z,72.96
2023-02-05T23:49:30.574Z,73.07
2023-02-05T23:51:58.099Z,73.29
2023-02-05T23:54:26.134Z,73.23
2023-02-05T23:56:54.966Z,73.59
2023-02-05T23:59:22.971Z,73.84
